Address 0x65b2ee047fe00e4528aa881ae41a3197c3828c21

 
 
Txn Hash Method
Block
From
To
Value [Txn Fee]
0x0ccc6e102eb31934a615adb9d5497d928efcece9fb9c09588f0e81f09c0c354dSwap Exact Token...128706462021-11-22 20:00:099 days 2 hrs ago0x65b2ee047fe00e4528aa881ae41a3197c3828c21OUT PancakeSwap: Router v20 BNB0.00082005
0x6ddb3a426681aea61d08b885eb5ad5f98032f225ab6c1fa88393e2c995d8006eDeposit128425932021-11-21 19:58:5210 days 2 hrs ago0x65b2ee047fe00e4528aa881ae41a3197c3828c21OUT 0x2ebe8cdbcb5fb8564bc45999dab8da264e31f24e0 BNB0.00074613
0x2b9340a3f40832431e64c016befd0b3daaca69cc9cc601b98bd53a3236ce960dSwap Exact Token...123424532021-11-03 21:19:1328 days 45 mins ago0x65b2ee047fe00e4528aa881ae41a3197c3828c21OUT PancakeSwap: Router v20 BNB0.00089505
0xe5092e8b966b54ab850e850d06afa58db3c565d98f54d562d54c176d055ca5e4Approve123424422021-11-03 21:18:2628 days 46 mins ago0x65b2ee047fe00e4528aa881ae41a3197c3828c21OUT Nerve: NRV Token0 BNB0.00022215
0x54da33db0105204795ae259209932c295ce2965172474e3c424f0a52f2d339deTransfer123386852021-11-03 18:08:0428 days 3 hrs ago0x65b2ee047fe00e4528aa881ae41a3197c3828c21OUT0x9774b0aaa233f93467752a355df49d90701b2e190.1 BNB0.000105
0xc1c881da096b7eea41e5f71eb81ca2ae761376d5290aa96a3b0654393d05658cDeposit123386572021-11-03 18:06:3928 days 3 hrs ago0x65b2ee047fe00e4528aa881ae41a3197c3828c21OUT 0x2ebe8cdbcb5fb8564bc45999dab8da264e31f24e0 BNB0.00067113
0x16bfab6252c3ee82e5b3068112b23243f71eb80285bef8b6c6c95b59eda55ac8Transfer123380272021-11-03 17:34:0928 days 4 hrs agoBinance: Hot Wallet 7 IN 0x65b2ee047fe00e4528aa881ae41a3197c3828c210.03633638 BNB0.00021
0x9be032546f58d42512094e935ffbad2d813be4686c07a419b9b1f46f5a2d4444Transfer123378992021-11-03 17:27:2828 days 4 hrs ago0x9774b0aaa233f93467752a355df49d90701b2e19 IN 0x65b2ee047fe00e4528aa881ae41a3197c3828c210.1 BNB0.000105
0xdfe7354573d8b5b573d2b8dfd6813e0abe30f884d8ece2e3cdb47732d2a0d9b4Remove Liquidity...118235372021-10-16 13:24:3546 days 8 hrs ago0x65b2ee047fe00e4528aa881ae41a3197c3828c21OUT 0x6c341938bb75dde823faafe7f446925c66e6270c0 BNB0.001110186
0x5983fca8c229446c1f54c6c51e5892eb9e1199756bd0c85100e7c5d35afb59c6Approve118235282021-10-16 13:24:0846 days 8 hrs ago0x65b2ee047fe00e4528aa881ae41a3197c3828c21OUT 0xd1d5af92c606c6f2ec59d453f57a6fcc188d7db50 BNB0.00022029
0x353512f17392eba47a7702e9319f0b603d51968ce4b4d2b9ec6e0623ca48c5eeWithdraw118234912021-10-16 13:22:1746 days 8 hrs ago0x65b2ee047fe00e4528aa881ae41a3197c3828c21OUT 0x2ebe8cdbcb5fb8564bc45999dab8da264e31f24e0 BNB0.000638835
0x1463cdeda7d9964574852024792182c828b0eed0e761d05a5d1986574d097f4bClaim117720902021-10-14 18:24:4748 days 3 hrs ago0x65b2ee047fe00e4528aa881ae41a3197c3828c21OUT 0xb6a9b0be9b087716acfd4805c2bb5b736ac62b380 BNB0.00023193
0x1e3baed294f43083528343a904c3c17e419012320efde8942c27d1090a1acca2Transfer117460582021-10-13 20:35:1349 days 1 hr ago0x65b2ee047fe00e4528aa881ae41a3197c3828c21OUT0x04603b50fbc122d016d8b68c5ec4390eb4be096615.2 BNB0.000105
0x4f6cce32ccd4634d8a8793ecce32fd97ada771151cdd63c86852a4245376383eTransfer117460232021-10-13 20:33:2849 days 1 hr ago0x65b2ee047fe00e4528aa881ae41a3197c3828c21OUT0x04603b50fbc122d016d8b68c5ec4390eb4be09660 BNB0.000105
0x5b9e2661beacefc374c4c600e56177e7f37b83077e34577c9994aff2a921b8acWithdraw117459702021-10-13 20:30:4949 days 1 hr ago0x65b2ee047fe00e4528aa881ae41a3197c3828c21OUT 0xd7d069493685a581d27824fc46eda46b7efc00630 BNB0.00074398
0x05bdda3aa764a42e9886b68b1d37cb53cb71ff0217f388e6e5148aa0e2c79c85Withdraw117459482021-10-13 20:29:4349 days 1 hr ago0x65b2ee047fe00e4528aa881ae41a3197c3828c21OUT Alpaca Finance: Fairlaunch0 BNB0.000759145
0x0359875578c52c18f8c7eae37a39ec6b3872dbada68ce3e3e3cd8f43f53a6442Transfer117459152021-10-13 20:28:0449 days 1 hr agoBinance: Hot Wallet 9 IN 0x65b2ee047fe00e4528aa881ae41a3197c3828c210.04246775 BNB0.00021
0x2bc525f65f85574172c55d8462d58e7dcfeaf534214d9fd0fc6b0f5ee569a558Deposit117007432021-10-12 6:17:1850 days 15 hrs ago0x65b2ee047fe00e4528aa881ae41a3197c3828c21OUT Alpaca Finance: Fairlaunch0 BNB0.000866555
0xfcfa2d2a1b79b9228095aec528dc5146824d49bfdd727b9a50165caaff6b9edcDeposit117007142021-10-12 6:15:5150 days 15 hrs ago0x65b2ee047fe00e4528aa881ae41a3197c3828c21OUT 0xd7d069493685a581d27824fc46eda46b7efc006315.16 BNB0.00068901
0x5cc6817e9c998f6ff458531f202f0181aa0527ab50197a415b5f958e31e9a48fTransfer117006882021-10-12 6:14:3350 days 15 hrs agoBinance: Hot Wallet 11 IN 0x65b2ee047fe00e4528aa881ae41a3197c3828c2115.09077895 BNB0.00021
0x8728135ca5b5e4551157359037b7586063154bdb62766e62a3c81e2a121ab311Deposit114841252021-10-04 16:43:4158 days 5 hrs ago0x65b2ee047fe00e4528aa881ae41a3197c3828c21OUT 0x2ebe8cdbcb5fb8564bc45999dab8da264e31f24e0 BNB0.00067113
0xb0b75b82b574473aa0e8b9533616a80b0bcd0c8817d23ea2deea38629adc64f3Deposit114840972021-10-04 16:42:1758 days 5 hrs ago0x65b2ee047fe00e4528aa881ae41a3197c3828c21OUT 0x2ebe8cdbcb5fb8564bc45999dab8da264e31f24e0 BNB0.00067113
0x4513c7d444412f7ecfe025e13647034b57215a97e25a6e9d72825d58aaa07e7aDeposit114206322021-10-02 11:30:4760 days 10 hrs ago0x65b2ee047fe00e4528aa881ae41a3197c3828c21OUT 0x2ebe8cdbcb5fb8564bc45999dab8da264e31f24e0 BNB0.00067113
0x9c31d87ca03dfa9c0368c8506c70d295578f423f8b6c6cdaff3bb20e2d896fa6Deposit114206202021-10-02 11:30:1160 days 10 hrs ago0x65b2ee047fe00e4528aa881ae41a3197c3828c21OUT 0x2ebe8cdbcb5fb8564bc45999dab8da264e31f24e0 BNB0.00067113
0xad3c89a80c09ac78821bdedabc756d72125f1012521b5b7b089313d15ece5295Transfer114206082021-10-02 11:29:3560 days 10 hrs agoBinance: Hot Wallet 13 IN 0x65b2ee047fe00e4528aa881ae41a3197c3828c210.0795 BNB0.00021
[ Download CSV Export 
Latest 2 internal transactions
Parent Txn Hash Block From To Value
0x5b9e2661beacefc374c4c600e56177e7f37b83077e34577c9994aff2a921b8ac117459702021-10-13 20:30:4949 days 1 hr ago 0xd7d069493685a581d27824fc46eda46b7efc00630x65b2ee047fe00e4528aa881ae41a3197c3828c2115.163938686626065426 BNB
0xa57a0d8c43abfe5e3ffc6be70008791ceb61da0d3142d6d0d622731de5f454af113456882021-09-29 20:24:1863 days 1 hr ago 0xd7d069493685a581d27824fc46eda46b7efc00630x65b2ee047fe00e4528aa881ae41a3197c3828c219.994342171888244717 BNB
[ Download CSV Export 
Loading

Contract Name:
0 BNB

Compiler Version
0

Optimization Enabled:
0 BNB

Other Settings:
-NA-
Block Transaction Gas Used Reward
Age Block Fee Address BC Fee Address Voting Power Jailed Incoming
Block Uncle Number Difficulty Gas Used Reward
Loading
Loading
Make sure to use the "Vote Down" button for any spammy posts, and the "Vote Up" for interesting conversations.